Time;durP1;ratioP1;P1;durP2;ratioP2;P2;SDS_P1;SDS_P2;PMS_P1;PMS_P2;Temp;Humidity;BMP_temperature;BMP_pressure;BME280_temperature;BME280_humidity;BME280_pressure;Samples;Min_cycle;Max_cycle;Signal;HPM_P1;HPM_P2
2022/08/23 00:00:10;;;;;;;5.03;4.63;;;17.30;99.90;;;-141.84;66.68;20399.19;4752029;30;20214;-60
2022/08/23 00:02:42;;;;;;;6.25;4.90;;;17.30;99.90;;;-141.84;66.09;20389.03;4751439;30;20239;-60
2022/08/23 00:05:11;;;;;;;5.03;4.53;;;17.30;99.90;;;-141.84;66.33;20403.25;4751264;29;20251;-60
2022/08/23 00:07:42;;;;;;;5.75;4.80;;;17.30;99.90;;;-141.84;66.32;20447.97;4751900;30;20339;-60
2022/08/23 00:10:15;;;;;;;5.57;4.68;;;17.30;99.90;;;-141.84;66.93;20393.09;4750399;29;20736;-61
2022/08/23 00:12:45;;;;;;;4.68;4.28;;;17.30;99.90;;;-141.84;67.43;20354.47;4751360;30;20235;-61
2022/08/23 00:15:19;;;;;;;5.25;4.72;;;17.30;99.90;;;-141.84;67.77;20348.38;4751481;30;20681;-60
2022/08/23 00:17:49;;;;;;;5.32;4.50;;;17.20;99.90;;;-141.84;68.40;20326.03;4751522;30;20242;-61
2022/08/23 00:20:20;;;;;;;5.40;4.53;;;17.10;99.90;;;-141.84;68.49;20321.97;4751088;29;20240;-60
2022/08/23 00:22:48;;;;;;;5.38;4.90;;;17.00;99.90;;;-141.84;68.78;20297.56;4751299;30;20248;-60
2022/08/23 00:25:16;;;;;;;6.00;5.15;;;17.00;99.90;;;-141.84;68.89;20299.59;4750783;29;20724;-60
2022/08/23 00:27:44;;;;;;;5.00;4.55;;;16.90;99.90;;;-141.84;68.67;20307.72;4751427;30;20232;-61
2022/08/23 00:30:15;;;;;;;5.63;5.13;;;16.90;99.90;;;-141.84;68.70;20303.66;4751501;30;20234;-59
2022/08/23 00:32:44;;;;;;;5.40;4.78;;;16.90;99.90;;;-141.84;69.06;20307.72;4751291;30;20811;-59
2022/08/23 00:35:16;;;;;;;5.30;4.80;;;16.90;99.90;;;-141.84;69.58;20252.84;4750725;29;20275;-60
2022/08/23 00:37:56;;;;;;;5.20;4.70;;;16.80;99.90;;;-141.84;70.15;20244.72;4751095;30;20662;-60
2022/08/23 00:40:46;;;;;;;5.70;5.05;;;16.80;99.90;;;-141.84;69.21;20269.13;4750610;30;20615;-60
2022/08/23 00:49:12;;;;;;;5.60;5.10;;;16.80;99.90;;;-141.84;69.10;20260.97;4750489;29;20250;-59
2022/08/23 00:51:52;;;;;;;5.80;5.25;;;16.80;99.90;;;-141.84;69.96;20273.19;4751033;30;20235;-60
2022/08/23 00:54:24;;;;;;;5.63;5.13;;;16.70;99.90;;;-141.84;70.54;20193.91;4750159;30;20295;-60
2022/08/23 00:56:53;;;;;;;5.70;5.18;;;16.70;99.90;;;-141.84;71.02;20179.69;4750744;30;20197;-60
2022/08/23 00:59:22;;;;;;;6.10;5.50;;;16.60;99.90;;;-141.84;70.91;20173.59;4750234;29;20244;-60
2022/08/23 01:01:51;;;;;;;6.47;5.88;;;16.60;99.90;;;-141.84;69.83;20228.47;4750594;30;20243;-59
2022/08/23 01:04:20;;;;;;;6.93;5.65;;;16.60;99.90;;;-141.84;69.52;20248.78;4750075;30;20271;-60
2022/08/23 01:06:59;;;;;;;6.93;5.45;;;16.60;99.90;;;-141.84;70.42;20193.91;4750658;30;20315;-61
2022/08/23 01:09:27;;;;;;;6.70;6.00;;;16.60;99.90;;;-141.84;70.50;20175.63;4750174;29;20235;-60
2022/08/23 01:12:05;;;;;;;6.07;5.57;;;16.50;99.90;;;-141.84;70.71;20175.63;4750624;30;20212;-60
2022/08/23 01:14:41;;;;;;;7.05;6.10;;;16.50;99.90;;;-141.84;71.26;20175.63;4750099;30;20335;-60
2022/08/23 01:17:16;;;;;;;6.07;5.57;;;16.50;99.90;;;-141.84;71.03;20185.78;4750286;30;20263;-60
2022/08/23 01:19:50;;;;;;;6.38;5.78;;;16.50;99.90;;;-141.84;70.41;20185.78;4750045;29;20247;-61
2022/08/23 01:22:29;;;;;;;6.38;5.78;;;16.50;99.90;;;-141.84;69.55;20165.44;4750250;30;20322;-60
2022/08/23 01:25:00;;;;;;;6.47;5.88;;;16.50;99.90;;;-141.84;69.39;20204.06;4750110;30;20246;-59
2022/08/23 01:27:37;;;;;;;6.30;5.72;;;16.50;99.90;;;-141.84;69.63;20177.66;4750436;30;20207;-59
2022/08/23 01:30:10;;;;;;;6.30;5.70;;;16.50;99.90;;;-141.84;69.42;20173.59;4750658;30;20319;-60
2022/08/23 01:32:45;;;;;;;6.20;5.57;;;16.50;99.90;;;-141.84;69.04;20175.63;4749842;30;20728;-61
2022/08/23 01:35:15;;;;;;;5.72;5.22;;;16.50;99.90;;;-141.84;68.86;20169.53;4749898;30;20326;-61
2022/08/23 01:37:44;;;;;;;5.85;5.30;;;16.50;99.90;;;-141.84;68.86;20212.19;4749879;29;20297;-62
2022/08/23 01:40:14;;;;;;;6.45;5.55;;;16.60;99.90;;;-141.84;68.54;20195.94;4749875;30;20354;-61
2022/08/23 01:42:43;;;;;;;5.82;5.13;;;16.60;99.90;;;-141.84;68.96;20169.53;4750362;30;20243;-59
2022/08/23 01:45:14;;;;;;;7.30;5.55;;;16.60;99.90;;;-141.84;68.26;20200.00;4750321;30;20252;-60
2022/08/23 01:47:43;;;;;;;6.60;6.00;;;16.60;99.90;;;-141.84;69.02;20200.00;4749796;30;20334;-59
2022/08/23 01:50:12;;;;;;;6.30;5.70;;;16.60;99.90;;;-141.84;68.03;20204.06;4749539;30;20359;-60
2022/08/23 01:52:43;;;;;;;7.30;5.35;;;16.60;99.90;;;-141.84;68.03;20197.97;4749707;30;20759;-59
2022/08/23 01:55:17;;;;;;;6.75;5.30;;;16.60;99.90;;;-141.84;68.94;20183.75;4749644;30;20273;-60
2022/08/23 01:57:49;;;;;;;7.47;5.30;;;16.60;99.90;;;-141.84;69.80;20151.22;4749723;30;20780;-62
2022/08/23 02:00:18;;;;;;;6.63;5.47;;;16.50;99.90;;;-141.84;68.77;20143.09;4750168;30;20642;-59
2022/08/23 02:02:47;;;;;;;6.22;5.63;;;16.50;99.90;;;-141.84;69.10;20159.34;4750249;30;20235;-61
2022/08/23 02:05:16;;;;;;;6.75;5.75;;;16.50;99.90;;;-141.84;69.12;20149.19;4749465;30;20376;-60
2022/08/23 02:07:46;;;;;;;6.68;5.93;;;16.40;99.90;;;-141.84;69.89;20112.59;4749733;30;20781;-59
2022/08/23 02:10:16;;;;;;;6.15;5.55;;;16.40;99.90;;;-141.84;70.24;20108.53;4749457;30;20263;-60
2022/08/23 02:12:45;;;;;;;8.50;5.95;;;16.30;99.90;;;-141.84;69.56;20124.81;4749725;30;20239;-60
2022/08/23 02:15:14;;;;;;;6.20;5.60;;;16.30;99.90;;;-141.84;68.87;20128.88;4750256;30;20212;-59
2022/08/23 02:17:45;;;;;;;5.95;5.45;;;16.40;99.90;;;-141.84;68.36;20151.22;4749828;30;20745;-60
2022/08/23 02:20:14;;;;;;;6.50;5.85;;;16.40;99.90;;;-141.84;68.83;20145.13;4749662;30;20231;-61
2022/08/23 02:22:42;;;;;;;6.43;5.82;;;16.40;99.90;;;-141.84;69.85;20110.56;4749369;30;20662;-61
2022/08/23 02:25:10;;;;;;;6.47;5.97;;;16.40;99.90;;;-141.84;69.99;20106.50;4749517;30;20235;-60
2022/08/23 02:27:41;;;;;;;7.00;6.30;;;16.30;99.90;;;-141.84;69.27;20128.88;4746998;30;20244;-61
2022/08/23 02:30:13;;;;;;;6.80;6.20;;;16.30;99.90;;;-141.84;68.67;20173.59;4731066;30;20251;-60
2022/08/23 02:32:41;;;;;;;7.00;6.20;;;16.40;99.90;;;-141.84;69.19;20098.38;4732774;30;20237;-61
2022/08/23 02:35:10;;;;;;;6.50;5.82;;;16.40;99.90;;;-141.84;69.38;20104.47;4736163;30;20248;-61
2022/08/23 02:37:39;;;;;;;6.55;5.88;;;16.30;99.90;;;-141.84;69.46;20120.75;4735799;30;20324;-61
2022/08/23 02:40:08;;;;;;;6.68;5.60;;;16.30;99.90;;;-141.84;69.67;20074.00;4736160;30;20247;-60
2022/08/23 02:42:36;;;;;;;8.30;6.30;;;16.30;99.90;;;-141.84;70.49;20088.22;4738481;30;20247;-61
2022/08/23 02:45:08;;;;;;;6.78;6.18;;;16.20;99.90;;;-141.84;71.01;20051.63;4753931;30;20584;-61
2022/08/23 02:47:37;;;;;;;6.45;5.80;;;16.10;99.90;;;-141.84;70.83;20021.16;4753332;30;20235;-60
2022/08/23 02:50:08;;;;;;;6.32;5.72;;;16.00;99.90;;;-141.84;71.55;20017.09;4753548;30;20259;-60
2022/08/23 02:52:36;;;;;;;8.32;6.38;;;16.00;99.90;;;-141.84;71.65;19996.75;4753317;30;20248;-61
2022/08/23 02:55:06;;;;;;;6.78;6.07;;;16.00;99.90;;;-141.84;72.04;19988.63;4753451;30;20246;-60
2022/08/23 02:57:34;;;;;;;6.93;5.72;;;15.90;99.90;;;-141.84;71.96;20008.94;4753660;30;20218;-59
2022/08/23 03:00:04;;;;;;;6.72;6.10;;;15.90;99.90;;;-141.84;72.69;19935.78;4754057;30;20303;-60
2022/08/23 03:02:34;;;;;;;7.15;5.95;;;15.80;99.90;;;-141.84;72.19;20000.81;4753094;30;20240;-60
2022/08/23 03:05:02;;;;;;;7.57;5.75;;;15.90;99.90;;;-141.84;71.90;19980.50;4753289;30;20232;-60
2022/08/23 03:07:30;;;;;;;8.40;6.00;;;15.90;99.90;;;-141.84;72.71;19960.16;4753322;30;20323;-60
2022/08/23 03:09:59;;;;;;;7.18;6.40;;;15.80;99.90;;;-141.84;72.38;19952.03;4753032;30;20729;-60
2022/08/23 03:12:27;;;;;;;7.63;6.20;;;15.80;99.90;;;-141.84;72.48;19962.19;4753170;30;20323;-61
2022/08/23 03:14:55;;;;;;;7.32;6.63;;;15.80;99.90;;;-141.84;72.87;19950.00;4753462;30;20212;-60
2022/08/23 03:17:24;;;;;;;7.20;6.00;;;15.70;99.90;;;-141.84;72.96;19943.91;4752824;30;20240;-60
2022/08/23 03:19:54;;;;;;;6.68;6.07;;;15.70;99.90;;;-141.84;72.46;19958.13;4752958;30;20328;-60
2022/08/23 03:22:23;;;;;;;6.50;5.90;;;15.80;99.90;;;-141.84;72.57;19925.63;4752986;30;20323;-59
2022/08/23 03:24:51;;;;;;;6.43;5.50;;;15.80;99.90;;;-141.84;73.37;19905.28;4752940;30;20242;-60
2022/08/23 03:27:19;;;;;;;6.90;6.20;;;15.70;99.90;;;-141.84;73.63;19864.66;4752751;30;20601;-61
2022/08/23 03:29:47;;;;;;;6.75;6.10;;;15.70;99.90;;;-141.84;73.62;19889.03;4753208;30;20273;-60
2022/08/23 03:32:15;;;;;;;6.88;6.10;;;15.70;99.90;;;-141.84;73.26;19891.06;4752646;30;20246;-60
2022/08/23 03:34:44;;;;;;;7.07;6.47;;;15.70;99.90;;;-141.84;73.14;19903.25;4752519;29;20304;-61
2022/08/23 03:37:14;;;;;;;7.20;6.47;;;15.70;99.90;;;-141.84;73.22;19927.66;4752735;30;20329;-59
2022/08/23 03:39:42;;;;;;;7.03;6.10;;;15.70;99.90;;;-141.84;73.25;19882.94;4752755;29;20240;-59
2022/08/23 03:42:10;;;;;;;6.70;5.93;;;15.70;99.90;;;-141.84;73.64;19866.69;4752889;30;20654;-60
2022/08/23 03:44:39;;;;;;;7.00;6.30;;;15.70;99.90;;;-141.84;73.37;19889.03;4751401;30;20778;-61
2022/08/23 03:47:07;;;;;;;7.45;5.65;;;15.70;99.90;;;-141.84;73.43;19832.13;4752428;29;20248;-60
2022/08/23 03:49:36;;;;;;;7.32;6.30;;;15.70;99.90;;;-141.84;73.29;19887.00;4752508;30;20231;-61
2022/08/23 03:52:04;;;;;;;9.27;6.95;;;15.70;99.90;;;-141.84;73.46;19870.75;4752252;30;20236;-61
2022/08/23 03:54:35;;;;;;;6.50;5.85;;;15.70;99.90;;;-141.84;73.84;19838.22;4752314;30;20226;-59
2022/08/23 03:57:08;;;;;;;8.40;6.05;;;15.70;99.90;;;-141.84;74.38;19805.72;4752845;30;20208;-61
2022/08/23 03:59:39;;;;;;;7.57;5.90;;;15.70;99.90;;;-141.84;74.29;19805.72;4752301;29;20240;-60
2022/08/23 04:02:08;;;;;;;5.97;5.47;;;15.60;99.90;;;-141.84;74.22;19742.72;4752333;30;20254;-59
2022/08/23 04:04:37;;;;;;;6.25;5.65;;;15.60;99.90;;;-141.84;74.10;19761.00;4752062;30;20710;-58
2022/08/23 04:07:05;;;;;;;6.60;6.00;;;15.60;99.90;;;-141.84;74.44;19720.34;4752358;30;20236;-61
2022/08/23 04:09:35;;;;;;;7.05;6.35;;;15.60;99.90;;;-141.84;74.60;19700.03;4751946;29;20311;-59
2022/08/23 04:12:04;;;;;;;6.65;5.97;;;15.60;99.90;;;-141.84;75.03;19679.72;4752739;30;20323;-61
2022/08/23 04:14:45;;;;;;;6.60;5.95;;;15.60;99.90;;;-141.84;75.06;19663.44;4752457;30;20244;-60
2022/08/23 04:17:14;;;;;;;8.32;6.60;;;15.70;99.90;;;-141.84;74.51;19708.16;4752207;29;20326;-60
2022/08/23 04:19:42;;;;;;;6.93;6.32;;;15.70;99.90;;;-141.84;73.48;19724.41;4751761;30;20274;-60
2022/08/23 04:22:14;;;;;;;6.82;6.00;;;15.90;99.90;;;-141.84;73.81;19695.97;4752058;29;20652;-60
2022/08/23 04:24:46;;;;;;;6.03;5.40;;;15.90;99.90;;;-141.84;73.90;19738.66;4751973;30;20322;-59
2022/08/23 04:27:14;;;;;;;7.25;6.45;;;16.00;99.90;;;-141.84;72.67;19781.31;4752517;30;20196;-60
2022/08/23 04:29:42;;;;;;;6.53;5.93;;;16.10;99.90;;;-141.84;72.13;19783.34;4751626;29;20322;-60
2022/08/23 04:32:11;;;;;;;6.80;6.13;;;16.20;99.90;;;-141.84;73.06;19720.34;4751770;30;20240;-60
2022/08/23 04:34:41;;;;;;;6.32;5.70;;;16.20;99.90;;;-141.84;72.64;19783.34;4751526;29;20310;-59
2022/08/23 04:37:12;;;;;;;6.85;6.15;;;16.20;99.90;;;-141.84;72.36;19746.78;4751476;30;20274;-59
2022/08/23 04:42:25;;;;;;;6.50;5.22;;;16.30;99.90;;;-141.84;72.06;19740.69;4751387;30;20196;-60
2022/08/23 04:44:53;;;;;;;6.18;5.57;;;16.40;99.90;;;-141.84;71.66;19787.41;4752029;30;20211;-60
2022/08/23 04:47:21;;;;;;;7.43;5.78;;;16.40;99.90;;;-141.84;70.36;19828.06;4751390;30;20299;-58
2022/08/23 04:49:49;;;;;;;6.40;5.55;;;16.60;99.90;;;-141.84;71.12;19811.81;4751292;29;20247;-60
2022/08/23 04:52:17;;;;;;;8.88;6.05;;;16.60;99.90;;;-141.84;71.47;19809.78;4751263;30;20236;-58
2022/08/23 04:54:46;;;;;;;6.93;5.53;;;16.60;99.90;;;-141.84;71.37;19824.00;4751322;30;20256;-59
2022/08/23 04:57:15;;;;;;;6.07;5.47;;;16.70;99.90;;;-141.84;71.59;19795.53;4751692;30;20304;-59
2022/08/23 04:59:45;;;;;;;6.60;5.70;;;16.70;99.90;;;-141.84;71.88;19799.63;4751386;30;20228;-59
2022/08/23 05:02:13;;;;;;;6.68;6.00;;;16.80;99.90;;;-141.84;71.85;19787.41;4751218;29;20236;-60
2022/08/23 05:04:41;;;;;;;6.30;5.70;;;16.80;99.90;;;-141.84;71.89;19783.34;4750917;30;20319;-58
2022/08/23 05:07:09;;;;;;;8.45;6.07;;;16.80;99.90;;;-141.84;72.06;19789.44;4751125;30;20723;-61
2022/08/23 05:09:38;;;;;;;6.57;5.68;;;16.90;99.90;;;-141.84;72.05;19769.13;4751020;29;20314;-61
2022/08/23 05:12:06;;;;;;;6.55;5.95;;;16.90;99.90;;;-141.84;71.62;19765.06;4751368;30;20248;-59
2022/08/23 05:14:35;;;;;;;7.25;6.55;;;16.90;99.90;;;-141.84;71.32;19805.72;4750816;30;20856;-59
2022/08/23 05:17:05;;;;;;;8.02;6.57;;;17.00;99.90;;;-141.84;71.53;19783.34;4751028;30;20269;-59
2022/08/23 05:19:35;;;;;;;6.70;5.97;;;17.10;99.90;;;-141.84;71.32;19866.69;4750859;30;20240;-60
2022/08/23 05:22:11;;;;;;;8.32;6.18;;;17.10;99.90;;;-141.84;70.32;19862.63;4750825;30;20732;-59
2022/08/23 05:24:39;;;;;;;6.72;6.03;;;17.20;99.90;;;-141.84;69.71;19927.66;4750966;30;20243;-60
2022/08/23 05:27:08;;;;;;;6.88;5.95;;;17.30;99.90;;;-141.84;69.08;19891.06;4751468;30;20271;-59
2022/08/23 05:29:40;;;;;;;7.18;5.85;;;17.30;99.90;;;-141.84;68.69;19925.63;4750585;29;20728;-60
2022/08/23 05:32:10;;;;;;;6.75;6.05;;;17.40;99.90;;;-141.84;68.54;19935.78;4750953;30;20247;-60
2022/08/23 05:34:38;;;;;;;5.97;5.47;;;17.50;99.90;;;-141.84;68.21;19958.13;4750561;30;20252;-58
2022/08/23 05:37:06;;;;;;;6.60;5.68;;;17.60;99.90;;;-141.84;68.22;19980.50;4750869;30;20242;-59
2022/08/23 05:39:34;;;;;;;8.80;6.03;;;17.70;99.90;;;-141.84;66.63;20059.75;4750550;29;20296;-59
2022/08/23 05:42:04;;;;;;;8.52;5.70;;;17.70;99.90;;;-141.84;66.21;20069.94;4751222;30;20215;-59
2022/08/23 05:44:32;;;;;;;5.95;5.35;;;17.80;99.90;;;-141.84;66.15;20106.50;4750440;30;20250;-58
2022/08/23 05:47:05;;;;;;;7.05;5.75;;;17.90;99.90;;;-141.84;65.96;20086.19;4750620;30;20235;-60
2022/08/23 05:49:40;;;;;;;5.88;5.15;;;17.90;99.90;;;-141.84;64.97;20134.97;4750540;30;20235;-59
2022/08/23 05:52:11;;;;;;;7.57;5.35;;;18.00;99.90;;;-141.84;63.90;20197.97;4750391;30;20768;-59
2022/08/23 05:54:40;;;;;;;6.40;5.70;;;18.10;99.90;;;-141.84;62.36;20317.91;4750409;30;20242;-60
2022/08/23 05:57:10;;;;;;;5.90;5.38;;;18.30;99.90;;;-141.84;62.88;20291.47;4751191;30;20215;-60
2022/08/23 05:59:39;;;;;;;7.20;6.28;;;18.40;99.90;;;-141.84;62.69;20319.94;4750335;30;20311;-59
2022/08/23 06:02:07;;;;;;;7.50;6.07;;;18.40;99.90;;;-141.84;62.72;20344.31;4750428;30;20242;-60
2022/08/23 06:04:35;;;;;;;6.93;5.75;;;18.40;99.90;;;-141.84;62.49;20319.94;4750201;30;20236;-60
2022/08/23 06:07:05;;;;;;;7.45;5.18;;;18.50;99.90;;;-141.84;62.05;20317.91;4750643;30;20326;-60
2022/08/23 06:09:33;;;;;;;6.80;5.30;;;18.50;99.90;;;-141.84;61.94;20356.50;4753294;30;20222;-59
2022/08/23 06:12:02;;;;;;;6.82;4.85;;;18.60;99.90;;;-141.84;61.92;20389.03;4754619;30;20235;-59
2022/08/23 06:14:30;;;;;;;5.03;4.60;;;18.70;99.90;;;-141.84;62.65;20401.22;4753854;30;20255;-59
2022/08/23 06:16:58;;;;;;;8.07;5.43;;;18.70;99.90;;;-141.84;61.42;20450.03;4754128;30;20653;-59
2022/08/23 06:19:26;;;;;;;8.30;5.18;;;18.90;99.90;;;-141.84;62.03;20415.47;4753502;30;20723;-61
2022/08/23 06:21:55;;;;;;;7.32;5.05;;;18.80;99.90;;;-141.84;62.83;20433.75;4753790;30;20851;-59
2022/08/23 06:24:25;;;;;;;9.00;5.60;;;18.90;99.90;;;-141.84;62.86;20403.25;4753842;30;20212;-60
2022/08/23 06:26:53;;;;;;;5.95;5.38;;;18.80;99.90;;;-141.84;62.47;20399.19;4754181;30;20218;-62
2022/08/23 06:29:22;;;;;;;4.68;4.10;;;18.90;99.90;;;-141.84;63.11;20407.34;4753513;30;20323;-59
2022/08/23 06:31:52;;;;;;;7.90;7.10;;;18.80;99.90;;;-141.84;62.47;20411.41;4753486;30;20242;-60
2022/08/23 06:34:25;;;;;;;5.28;4.78;;;19.00;99.90;;;-141.84;62.88;20425.63;4753657;30;20324;-60
2022/08/23 06:36:56;;;;;;;10.13;5.60;;;19.10;99.90;;;-141.84;62.29;20504.91;4753802;30;20240;-62
2022/08/23 06:39:29;;;;;;;5.20;4.70;;;19.20;99.90;;;-141.84;62.76;20450.03;4753318;30;20341;-59
2022/08/23 06:42:08;;;;;;;5.90;5.30;;;19.10;99.90;;;-141.84;62.55;20454.09;4754259;30;20203;-59
2022/08/23 06:44:56;;;;;;;6.63;5.40;;;19.20;99.90;;;-141.84;62.08;20504.91;4753998;30;20228;-60
2022/08/23 06:47:24;;;;;;;6.28;5.07;;;19.30;99.90;;;-141.84;62.24;20506.94;4753343;30;20635;-61
2022/08/23 06:49:53;;;;;;;6.78;5.43;;;19.30;99.90;;;-141.84;62.77;20513.03;4753175;30;20235;-59
2022/08/23 06:52:26;;;;;;;5.43;4.97;;;19.30;99.90;;;-141.84;62.61;20474.41;4753502;30;20244;-60
2022/08/23 06:54:56;;;;;;;5.35;4.85;;;19.40;99.90;;;-141.84;63.11;20468.31;4753504;30;20271;-59
2022/08/23 06:57:25;;;;;;;5.70;5.05;;;19.50;99.90;;;-141.84;63.22;20437.81;4753683;30;20228;-59
2022/08/23 06:59:53;;;;;;;5.22;4.72;;;19.50;99.90;;;-141.84;63.12;20472.38;4754007;30;20269;-61
2022/08/23 07:02:21;;;;;;;6.18;5.57;;;19.60;99.90;;;-141.84;61.66;20569.94;4753241;30;20232;-58
2022/08/23 07:04:52;;;;;;;6.13;5.53;;;19.70;99.90;;;-141.84;62.53;20523.19;4753079;30;20239;-60
2022/08/23 07:07:21;;;;;;;6.38;5.78;;;19.70;99.90;;;-141.84;62.91;20513.03;4753170;30;20283;-59
2022/08/23 07:09:49;;;;;;;6.82;5.60;;;19.70;99.90;;;-141.84;61.89;20555.72;4753096;29;20236;-59
2022/08/23 07:12:20;;;;;;;5.30;4.80;;;19.80;99.90;;;-141.84;61.81;20620.78;4753463;30;20239;-59
2022/08/23 07:14:49;;;;;;;7.03;5.18;;;20.00;99.90;;;-141.84;61.39;20624.84;4747388;30;20287;-60
2022/08/23 07:17:17;;;;;;;6.63;5.00;;;20.10;99.90;;;-141.84;61.34;20630.94;4738486;30;20228;-60
2022/08/23 07:19:45;;;;;;;5.68;4.60;;;20.10;99.90;;;-141.84;60.90;20673.63;4752609;30;20317;-59
2022/08/23 07:22:14;;;;;;;5.60;4.97;;;20.20;99.90;;;-141.84;59.91;20708.19;4752717;30;20698;-60
2022/08/23 07:24:42;;;;;;;5.55;5.03;;;20.30;99.90;;;-141.84;60.86;20685.81;4752857;30;20240;-60
2022/08/23 07:27:11;;;;;;;6.50;5.15;;;20.30;99.90;;;-141.84;59.50;20748.84;4753154;30;20220;-59
2022/08/23 07:29:41;;;;;;;6.45;4.68;;;20.40;99.90;;;-141.84;60.22;20756.97;4752482;29;20240;-60
2022/08/23 07:32:10;;;;;;;4.90;4.50;;;20.50;99.90;;;-141.84;60.32;20726.47;4752449;30;20263;-59
2022/08/23 07:34:38;;;;;;;5.00;4.50;;;20.40;99.90;;;-141.84;59.85;20756.97;4752872;29;20506;-60
2022/08/23 07:37:06;;;;;;;5.55;4.35;;;20.50;99.90;;;-141.84;60.64;20691.91;4752290;30;20331;-59
2022/08/23 07:39:43;;;;;;;6.47;4.80;;;20.50;99.90;;;-141.84;60.65;20718.34;4752267;29;20617;-59
2022/08/23 07:42:11;;;;;;;6.40;4.43;;;20.50;99.90;;;-141.84;60.47;20761.03;4752903;30;20615;-60
2022/08/23 07:44:52;;;;;;;4.50;4.13;;;20.40;99.90;;;-141.84;60.34;20736.63;4717513;30;20308;-60
2022/08/23 07:47:21;;;;;;;4.75;4.22;;;20.50;99.90;;;-141.84;59.89;20777.28;4717069;30;20315;-60
2022/08/23 07:49:49;;;;;;;5.35;4.45;;;20.50;99.90;;;-141.84;60.25;20811.84;4717007;30;20328;-60
2022/08/23 07:52:17;;;;;;;4.38;3.97;;;20.50;99.90;;;-141.84;60.32;20793.56;4717236;30;20237;-61
2022/08/23 07:54:46;;;;;;;5.80;5.20;;;20.60;99.90;;;-141.84;59.57;20797.63;4717038;30;20332;-60
2022/08/23 07:57:15;;;;;;;6.90;4.57;;;20.60;99.90;;;-141.84;59.72;20822.03;4717717;30;20216;-59
2022/08/23 07:59:44;;;;;;;6.07;4.50;;;20.70;99.90;;;-141.84;59.85;20809.81;4717490;30;20237;-60
2022/08/23 08:02:14;;;;;;;8.77;5.03;;;20.80;99.90;;;-141.84;58.92;20826.09;4717121;30;20683;-58
2022/08/23 08:04:42;;;;;;;5.45;4.32;;;20.90;99.90;;;-141.84;58.62;20907.41;4717139;30;20241;-59
2022/08/23 08:07:11;;;;;;;6.30;5.22;;;21.00;99.90;;;-141.84;57.95;20986.69;4716937;30;20621;-59
2022/08/23 08:09:47;;;;;;;4.72;4.32;;;21.20;99.90;;;-141.84;57.35;21009.03;4716976;30;20311;-60
2022/08/23 08:12:16;;;;;;;5.68;4.90;;;21.40;99.90;;;-141.84;56.16;21078.16;4717258;30;20227;-62
2022/08/23 08:14:45;;;;;;;6.70;4.50;;;21.60;99.90;;;-141.84;54.42;21151.34;4745446;30;20309;-60
2022/08/23 08:17:15;;;;;;;4.68;4.22;;;21.50;99.90;;;-141.84;54.82;21135.09;4751605;29;20250;-61
2022/08/23 08:19:44;;;;;;;4.68;4.20;;;21.60;99.90;;;-141.84;53.69;21183.88;4751600;30;20232;-62
2022/08/23 08:22:13;;;;;;;4.80;4.18;;;21.80;99.90;;;-141.84;54.25;21183.88;4740290;30;20232;-61
2022/08/23 08:24:41;;;;;;;4.70;4.30;;;21.70;99.90;;;-141.84;55.47;21169.66;4745519;30;20227;-62
2022/08/23 08:27:09;;;;;;;4.85;4.15;;;21.70;99.90;;;-141.84;55.49;21183.88;4751714;30;20216;-61
2022/08/23 08:29:37;;;;;;;4.50;4.13;;;21.80;99.90;;;-141.84;55.42;21204.22;4751498;29;20244;-61
2022/08/23 08:32:07;;;;;;;6.25;4.07;;;21.80;99.90;;;-141.84;53.13;21283.50;4750953;30;20265;-61
2022/08/23 08:34:42;;;;;;;4.68;3.90;;;22.00;99.90;;;-141.84;52.25;21352.63;4733540;30;20240;-59
2022/08/23 08:37:10;;;;;;;4.15;3.40;;;22.20;99.90;;;-141.84;53.34;21307.91;4733604;30;20268;-59
2022/08/23 08:39:44;;;;;;;4.72;3.30;;;22.20;99.90;;;-141.84;51.96;21364.84;4733600;30;20286;-59
2022/08/23 08:42:40;;;;;;;4.07;3.53;;;22.20;99.90;;;-141.84;52.08;21446.16;4733700;30;20685;-59
2022/08/23 08:45:16;;;;;;;4.88;3.03;;;22.50;99.90;;;-141.84;50.83;21480.72;4714898;30;20242;-59
2022/08/23 08:47:49;;;;;;;4.30;3.08;;;22.60;99.90;;;-141.84;50.38;21511.22;4716341;30;20716;-59
2022/08/23 08:50:25;;;;;;;3.10;2.80;;;22.60;99.90;;;-141.84;48.97;21570.19;4715848;30;20324;-59
2022/08/23 08:53:01;;;;;;;3.72;2.92;;;22.70;99.90;;;-141.84;49.51;21588.50;4715959;30;20326;-60
2022/08/23 08:55:36;;;;;;;2.97;2.70;;;22.80;99.90;;;-141.84;49.60;21549.84;4715862;30;20671;-60
2022/08/23 08:58:14;;;;;;;3.38;2.92;;;22.90;99.90;;;-141.84;49.83;21509.19;4715810;30;20263;-59
2022/08/23 09:00:42;;;;;;;4.40;2.60;;;22.90;99.90;;;-141.84;49.79;21558.00;4716160;30;20312;-59
2022/08/23 09:03:19;;;;;;;4.95;2.85;;;22.90;99.90;;;-141.84;50.05;21547.81;4716175;30;20677;-60
2022/08/23 09:05:57;;;;;;;4.85;2.83;;;22.90;99.90;;;-141.84;49.09;21606.78;4716186;30;20678;-59
2022/08/23 09:08:53;;;;;;;3.88;2.90;;;22.90;99.90;;;-141.84;49.12;21588.50;4715532;30;20267;-59
2022/08/23 09:11:39;;;;;;;4.18;2.65;;;22.90;99.90;;;-141.84;49.50;21635.25;4715521;30;20257;-60
2022/08/23 09:14:46;;;;;;;3.28;2.90;;;22.90;99.90;;;-141.84;48.98;21606.78;4742255;30;20235;-58
2022/08/23 09:17:25;;;;;;;3.65;2.70;;;22.80;99.90;;;-141.84;48.57;21732.84;4750518;30;20244;-59
2022/08/23 09:20:00;;;;;;;3.25;2.67;;;23.10;99.90;;;-141.84;48.69;21726.75;4750234;30;20240;-59
2022/08/23 09:22:37;;;;;;;3.10;2.55;;;23.30;99.90;;;-141.84;48.85;21714.56;4750560;30;20314;-59
2022/08/23 09:25:09;;;;;;;3.20;2.33;;;23.30;99.90;;;-141.84;49.18;21716.59;4750720;30;20259;-58
2022/08/23 09:27:38;;;;;;;3.50;2.88;;;23.30;99.90;;;-141.84;48.72;21722.69;4749864;29;20223;-59
2022/08/23 09:30:08;;;;;;;3.20;2.70;;;23.30;99.90;;;-141.84;49.23;21665.75;4750789;30;20696;-59
2022/08/23 09:32:40;;;;;;;5.18;2.80;;;23.30;99.90;;;-141.84;48.72;21690.16;4750296;30;20246;-58
2022/08/23 09:35:16;;;;;;;4.07;3.13;;;23.20;99.90;;;-141.84;50.08;21588.50;4750270;30;20711;-59
2022/08/23 09:37:58;;;;;;;4.35;2.92;;;23.10;99.90;;;-141.84;49.83;21555.97;4750202;30;20662;-59
2022/08/23 09:40:34;;;;;;;3.42;2.67;;;22.90;99.90;;;-141.84;51.28;21494.97;4750334;29;20330;-59
2022/08/23 09:43:13;;;;;;;4.18;3.13;;;22.70;99.90;;;-141.84;51.70;21448.19;4749239;30;20244;-61
2022/08/23 09:45:54;;;;;;;3.00;2.53;;;22.50;99.90;;;-141.84;52.28;21417.69;4750136;30;20621;-59
2022/08/23 09:48:39;;;;;;;4.43;2.78;;;22.50;99.90;;;-141.84;52.38;21444.13;4750030;30;20260;-60
2022/08/23 09:51:19;;;;;;;4.47;3.25;;;22.60;99.90;;;-141.84;52.75;21452.25;4750874;30;20280;-60
2022/08/23 09:54:01;;;;;;;5.47;3.28;;;22.50;99.90;;;-141.84;52.42;21413.63;4750200;30;20593;-60
2022/08/23 09:56:36;;;;;;;4.72;3.10;;;22.60;99.90;;;-141.84;52.76;21438.03;4750184;29;20246;-59
2022/08/23 09:59:25;;;;;;;3.42;3.13;;;22.60;99.90;;;-141.84;53.22;21375.00;4750318;30;20249;-60
2022/08/23 10:01:57;;;;;;;4.70;3.38;;;22.50;99.90;;;-141.84;53.36;21419.72;4749978;30;20239;-60
2022/08/23 10:04:43;;;;;;;5.95;3.92;;;22.50;99.90;;;-141.84;53.37;21423.81;4749690;30;20239;-60
2022/08/23 10:07:37;;;;;;;6.55;4.00;;;22.60;99.90;;;-141.84;53.43;21427.88;4750111;30;20240;-59
2022/08/23 10:10:23;;;;;;;8.90;4.20;;;22.70;99.90;;;-141.84;52.56;21484.78;4749911;29;20235;-59
2022/08/23 10:12:53;;;;;;;4.40;3.72;;;22.80;99.90;;;-141.84;51.90;21472.59;4749895;30;20270;-60
2022/08/23 10:15:40;;;;;;;7.38;3.80;;;23.00;99.90;;;-141.84;51.63;21543.75;4749830;30;20222;-60
2022/08/23 10:18:22;;;;;;;4.10;3.08;;;23.20;99.90;;;-141.84;50.61;21659.66;4750323;30;20196;-60
2022/08/23 10:21:03;;;;;;;4.60;3.15;;;23.40;99.90;;;-141.84;50.10;21694.22;4750273;30;20235;-60
2022/08/23 10:23:49;;;;;;;3.60;3.13;;;23.60;99.90;;;-141.84;49.41;21808.09;4749550;30;20351;-59
2022/08/23 10:26:27;;;;;;;7.15;3.38;;;24.00;99.90;;;-141.84;48.03;21948.41;4749909;30;20784;-60
2022/08/23 10:32:14;;;;;;;3.75;2.60;;;24.70;99.90;;;-141.84;45.79;22025.66;4749451;29;20260;-60
2022/08/23 10:34:58;;;;;;;4.40;3.00;;;24.70;99.90;;;-141.84;46.12;22001.28;4750010;30;20777;-60